createdAt,value
2019-03-12T00:03:02.611Z,26.60
2019-03-12T00:06:26.405Z,25.73
2019-03-12T00:09:50.156Z,25.57
2019-03-12T00:13:14.025Z,27.40
2019-03-12T00:16:38.002Z,24.83
2019-03-12T00:20:01.712Z,24.23
2019-03-12T00:23:25.993Z,25.23
2019-03-12T00:26:49.963Z,26.80
2019-03-12T00:30:13.723Z,25.10
2019-03-12T00:33:37.581Z,24.27
2019-03-12T00:37:01.298Z,27.23
2019-03-12T00:40:25.133Z,25.77
2019-03-12T00:43:48.873Z,24.50
2019-03-12T00:47:12.646Z,25.43
2019-03-12T00:50:36.428Z,30.37
2019-03-12T00:54:00.333Z,25.53
2019-03-12T00:57:24.047Z,25.60
2019-03-12T01:00:47.811Z,26.43
2019-03-12T01:04:11.627Z,29.97
2019-03-12T01:07:35.430Z,25.63
2019-03-12T01:10:59.460Z,27.77
2019-03-12T01:14:23.270Z,26.43
2019-03-12T01:17:47.041Z,25.30
2019-03-12T01:21:10.787Z,25.20
2019-03-12T01:24:34.749Z,26.07
2019-03-12T01:27:58.486Z,23.87
2019-03-12T01:31:22.208Z,23.13
2019-03-12T01:34:45.862Z,21.03
2019-03-12T01:38:09.692Z,22.03
2019-03-12T01:41:33.536Z,22.13
2019-03-12T01:44:57.308Z,21.50
2019-03-12T01:48:21.058Z,21.53
2019-03-12T01:51:45.081Z,19.23
2019-03-12T01:55:11.265Z,20.27
2019-03-12T01:58:35.046Z,21.23
2019-03-12T02:01:58.936Z,18.30
2019-03-12T02:05:22.785Z,18.20
2019-03-12T02:08:46.606Z,19.00
2019-03-12T02:12:10.493Z,19.77
2019-03-12T02:15:34.495Z,18.43
2019-03-12T02:18:58.231Z,19.40
2019-03-12T02:22:22.118Z,19.53
2019-03-12T02:25:46.516Z,19.60
2019-03-12T02:29:10.258Z,20.37
2019-03-12T02:32:34.201Z,20.70
2019-03-12T02:35:58.015Z,19.97
2019-03-12T02:39:21.969Z,19.77
2019-03-12T02:42:45.799Z,19.70
2019-03-12T02:46:09.559Z,21.00
2019-03-12T02:49:33.403Z,20.53
2019-03-12T02:52:57.276Z,19.30
2019-03-12T02:56:22.078Z,18.50
2019-03-12T02:59:45.836Z,20.70
2019-03-12T03:03:09.855Z,18.63
2019-03-12T03:06:35.271Z,20.53
2019-03-12T03:09:59.798Z,20.60
2019-03-12T03:13:23.619Z,21.53
2019-03-12T03:16:47.391Z,20.27
2019-03-12T03:20:11.351Z,21.83
2019-03-12T03:23:35.088Z,20.17
2019-03-12T03:26:58.918Z,24.33
2019-03-12T03:30:24.233Z,19.67
2019-03-12T03:33:48.782Z,20.03
2019-03-12T03:37:12.554Z,20.67
2019-03-12T03:40:36.399Z,21.33
2019-03-12T03:44:00.264Z,20.27
2019-03-12T03:47:24.019Z,19.47
2019-03-12T03:50:47.732Z,22.13
2019-03-12T03:54:11.578Z,21.37
2019-03-12T03:57:35.339Z,21.40
2019-03-12T04:00:59.341Z,21.20
2019-03-12T04:04:23.343Z,22.77
2019-03-12T04:07:47.201Z,21.87
2019-03-12T04:11:11.021Z,22.50
2019-03-12T04:14:34.917Z,21.53
2019-03-12T04:17:58.881Z,22.43
2019-03-12T04:21:22.654Z,19.90
2019-03-12T04:24:46.533Z,19.50
2019-03-12T04:28:10.377Z,19.47
2019-03-12T04:31:34.279Z,17.30
2019-03-12T04:34:58.023Z,18.23
2019-03-12T04:38:21.837Z,18.00
2019-03-12T04:41:45.702Z,20.60
2019-03-12T04:45:16.978Z,19.40
2019-03-12T04:48:40.855Z,22.27
2019-03-12T04:52:04.745Z,18.90
2019-03-12T04:55:28.517Z,17.37
2019-03-12T04:58:52.285Z,17.33
2019-03-12T05:02:16.351Z,16.47
2019-03-12T05:05:40.255Z,14.03
2019-03-12T05:09:07.227Z,17.93
2019-03-12T05:12:30.942Z,16.40
2019-03-12T05:15:54.754Z,17.63
2019-03-12T05:19:18.670Z,18.03
2019-03-12T05:22:42.533Z,17.33
2019-03-12T05:26:06.823Z,19.20
2019-03-12T05:29:30.548Z,18.87
2019-03-12T05:32:54.480Z,19.23
2019-03-12T05:36:18.612Z,16.87
2019-03-12T05:39:42.466Z,14.50
2019-03-12T05:43:06.308Z,13.83
2019-03-12T05:46:30.219Z,15.63
2019-03-12T05:49:53.954Z,15.40
2019-03-12T05:53:17.736Z,13.70
2019-03-12T05:56:41.544Z,14.23
2019-03-12T06:00:08.631Z,13.70
2019-03-12T06:03:32.506Z,14.30
2019-03-12T06:06:56.395Z,15.73
2019-03-12T06:10:20.173Z,12.03
2019-03-12T06:13:44.840Z,12.23
2019-03-12T06:17:08.571Z,16.03
2019-03-12T06:20:33.259Z,13.80
2019-03-12T06:23:57.748Z,11.50
2019-03-12T06:27:21.400Z,12.00
2019-03-12T06:30:49.580Z,10.67
2019-03-12T06:34:14.904Z,10.43
2019-03-12T06:37:43.810Z,12.00
2019-03-12T06:41:09.328Z,12.63
2019-03-12T06:44:37.515Z,11.23
2019-03-12T06:48:08.931Z,12.90
2019-03-12T06:51:50.631Z,15.47
2019-03-12T06:55:21.795Z,12.63
2019-03-12T06:58:56.163Z,12.00
2019-03-12T07:02:24.323Z,13.70
2019-03-12T07:06:07.834Z,14.30
2019-03-12T07:09:49.679Z,17.63
2019-03-12T07:13:17.609Z,14.93
2019-03-12T07:16:45.728Z,9.87
2019-03-12T07:20:13.323Z,10.40
2019-03-12T07:23:47.983Z,11.83
2019-03-12T07:27:17.215Z,10.00
2019-03-12T07:30:59.203Z,9.33
2019-03-12T07:34:36.737Z,7.87
2019-03-12T07:38:07.191Z,8.97
2019-03-12T07:41:41.714Z,9.17
2019-03-12T07:45:25.406Z,8.83
2019-03-12T07:48:59.881Z,9.47
2019-03-12T07:52:41.763Z,8.87
2019-03-12T07:56:07.271Z,10.53
2019-03-12T07:59:38.831Z,10.67
2019-03-12T08:03:04.354Z,11.27
2019-03-12T08:06:48.019Z,9.73
2019-03-12T08:10:33.673Z,9.20
2019-03-12T08:14:01.259Z,9.07
2019-03-12T08:17:41.857Z,8.47
2019-03-12T08:21:21.754Z,8.00
2019-03-12T08:24:46.284Z,8.20
2019-03-12T08:28:11.746Z,8.23
2019-03-12T08:31:37.105Z,8.90
2019-03-12T08:35:14.853Z,9.43
2019-03-12T08:38:41.159Z,10.33
2019-03-12T08:42:09.923Z,9.53
2019-03-12T08:45:35.310Z,9.90
2019-03-12T08:49:13.078Z,9.17
2019-03-12T08:52:47.301Z,9.83
2019-03-12T08:56:12.691Z,7.67
2019-03-12T08:59:53.475Z,9.67
2019-03-12T09:03:28.663Z,7.37
2019-03-12T09:06:54.003Z,7.50
2019-03-12T09:10:19.455Z,7.43
2019-03-12T09:13:54.003Z,8.17
2019-03-12T09:17:25.249Z,5.07
2019-03-12T09:21:02.578Z,6.17
2019-03-12T09:24:42.808Z,7.07
2019-03-12T09:28:24.603Z,5.43
2019-03-12T09:31:59.388Z,6.13
2019-03-12T09:35:36.568Z,6.30
2019-03-12T09:39:02.095Z,5.80
2019-03-12T09:42:39.664Z,5.37
2019-03-12T09:46:08.258Z,6.60
2019-03-12T09:49:45.849Z,5.47
2019-03-12T09:53:23.548Z,5.07
2019-03-12T09:56:54.792Z,5.13
2019-03-12T10:00:20.346Z,4.53
2019-03-12T10:03:48.534Z,5.03
2019-03-12T10:07:32.035Z,5.70
2019-03-12T10:11:14.076Z,5.30
2019-03-12T10:14:45.736Z,5.10
2019-03-12T10:18:26.224Z,5.00
2019-03-12T10:22:00.376Z,4.90
2019-03-12T10:25:34.733Z,4.27
2019-03-12T10:29:06.016Z,4.80
2019-03-12T10:32:34.436Z,5.53
2019-03-12T10:36:02.658Z,5.73
2019-03-12T10:40:06.489Z,5.23
2019-03-12T10:43:31.928Z,4.40
2019-03-12T10:47:09.736Z,4.07
2019-03-12T10:50:33.666Z,3.60
2019-03-12T10:53:57.468Z,3.60
2019-03-12T10:57:21.727Z,4.27
2019-03-12T11:00:45.881Z,3.70
2019-03-12T11:04:09.730Z,3.87
2019-03-12T11:07:33.571Z,3.60
2019-03-12T11:10:57.271Z,3.30
2019-03-12T11:14:21.098Z,3.20
2019-03-12T11:17:49.801Z,3.33
2019-03-12T11:21:10.327Z,11.80
2019-03-12T11:24:34.163Z,5.00
2019-03-12T11:27:58.117Z,4.40
2019-03-12T11:31:21.989Z,4.30
2019-03-12T11:34:45.872Z,4.70
2019-03-12T11:38:10.692Z,4.40
2019-03-12T11:41:34.556Z,4.47
2019-03-12T11:44:58.539Z,3.50
2019-03-12T11:48:22.412Z,3.50
2019-03-12T11:51:46.336Z,3.80
2019-03-12T11:55:11.911Z,4.20
2019-03-12T11:58:35.598Z,3.90
2019-03-12T12:01:59.320Z,4.07
2019-03-12T12:05:23.374Z,4.63
2019-03-12T12:08:47.271Z,3.20
2019-03-12T12:12:11.013Z,5.00
2019-03-12T12:15:34.796Z,3.37
2019-03-12T12:18:58.538Z,5.00
2019-03-12T12:22:22.266Z,4.87
2019-03-12T12:25:45.989Z,4.33
2019-03-12T12:29:09.941Z,5.50
2019-03-12T12:32:33.786Z,4.43
2019-03-12T12:35:57.553Z,3.80
2019-03-12T12:39:21.386Z,4.03
2019-03-12T12:42:45.328Z,3.63
2019-03-12T12:46:09.038Z,4.20
2019-03-12T12:49:32.886Z,4.10
2019-03-12T12:52:56.670Z,4.33
2019-03-12T12:56:20.805Z,4.33
2019-03-12T12:59:44.669Z,7.53
2019-03-12T13:03:08.603Z,5.03
2019-03-12T13:06:32.643Z,7.40
2019-03-12T13:09:56.573Z,6.87
2019-03-12T13:13:20.500Z,7.47
2019-03-12T13:16:44.243Z,9.73
2019-03-12T13:20:10.296Z,7.60
2019-03-12T13:23:36.181Z,6.90
2019-03-12T13:26:59.530Z,6.77
2019-03-12T13:30:24.064Z,5.90
2019-03-12T13:33:48.489Z,9.83
2019-03-12T13:37:12.849Z,11.77
2019-03-12T13:40:36.648Z,17.53
2019-03-12T13:44:00.528Z,8.83
2019-03-12T13:47:28.754Z,7.50
2019-03-12T13:50:50.346Z,6.83
2019-03-12T13:54:14.445Z,5.80
2019-03-12T13:57:40.564Z,8.80
2019-03-12T14:01:04.529Z,8.00
2019-03-12T14:04:28.324Z,8.10
2019-03-12T14:07:52.175Z,6.50
2019-03-12T14:11:15.926Z,13.57
2019-03-12T14:14:40.661Z,8.37
2019-03-12T14:18:04.642Z,6.90
2019-03-12T14:21:29.896Z,5.93
2019-03-12T14:24:53.731Z,6.47
2019-03-12T14:28:18.155Z,6.90
2019-03-12T14:31:41.891Z,6.33
2019-03-12T14:35:06.522Z,4.57
2019-03-12T14:38:30.415Z,8.20
2019-03-12T14:41:54.241Z,6.50
2019-03-12T14:45:28.596Z,6.10
2019-03-12T14:48:54.348Z,5.30
2019-03-12T14:52:18.074Z,10.13
2019-03-12T14:55:41.823Z,6.80
2019-03-12T14:59:05.710Z,10.80
2019-03-12T15:02:29.529Z,6.93
2019-03-12T15:05:53.256Z,9.13
2019-03-12T15:09:17.082Z,7.03
2019-03-12T15:12:41.058Z,10.67
2019-03-12T15:16:05.151Z,7.00
2019-03-12T15:19:29.184Z,8.10
2019-03-12T15:22:53.015Z,11.57
2019-03-12T15:26:17.044Z,11.13
2019-03-12T15:29:41.015Z,7.70
2019-03-12T15:33:04.901Z,13.00
2019-03-12T15:36:28.751Z,7.20
2019-03-12T15:39:52.708Z,7.53
2019-03-12T15:43:16.647Z,8.00
2019-03-12T15:46:40.524Z,11.00
2019-03-12T15:50:09.662Z,8.97
2019-03-12T15:53:32.074Z,16.83
2019-03-12T15:56:55.936Z,17.47
2019-03-12T16:00:20.457Z,24.00
2019-03-12T16:03:44.319Z,17.70
2019-03-12T16:07:08.128Z,15.07
2019-03-12T16:10:32.201Z,16.07
2019-03-12T16:13:56.084Z,10.57
2019-03-12T16:17:19.938Z,15.20
2019-03-12T16:20:44.033Z,13.57
2019-03-12T16:24:08.344Z,17.97
2019-03-12T16:27:32.313Z,24.70
2019-03-12T16:30:56.407Z,17.37
2019-03-12T16:34:20.235Z,16.47
2019-03-12T16:37:44.044Z,12.83
2019-03-12T16:41:07.899Z,10.07
2019-03-12T16:44:31.896Z,10.53
2019-03-12T16:47:55.604Z,13.30
2019-03-12T16:51:19.478Z,14.03
2019-03-12T16:54:43.471Z,12.40
2019-03-12T16:58:07.376Z,10.27
2019-03-12T17:01:31.304Z,8.93
2019-03-12T17:04:55.068Z,8.63
2019-03-12T17:08:18.847Z,13.97
2019-03-12T17:11:42.665Z,9.63
2019-03-12T17:15:09.537Z,10.60
2019-03-12T17:18:33.999Z,24.63
2019-03-12T17:21:58.395Z,20.40
2019-03-12T17:25:22.164Z,13.67
2019-03-12T17:28:46.028Z,14.23
2019-03-12T17:32:10.002Z,13.17
2019-03-12T17:35:38.332Z,14.27
2019-03-12T17:39:02.426Z,63.33
2019-03-12T17:42:26.295Z,56.83
2019-03-12T17:45:50.154Z,50.50
2019-03-12T17:49:14.012Z,18.23
2019-03-12T17:52:38.241Z,16.47
2019-03-12T17:56:02.146Z,18.27
2019-03-12T17:59:26.603Z,26.00
2019-03-12T18:02:50.613Z,24.90
2019-03-12T18:06:14.385Z,19.20
2019-03-12T18:09:38.238Z,18.53
2019-03-12T18:13:02.486Z,21.77
2019-03-12T18:16:26.465Z,16.40
2019-03-12T18:19:50.493Z,21.33
2019-03-12T18:23:14.411Z,20.20
2019-03-12T18:26:38.362Z,25.13
2019-03-12T18:30:02.842Z,21.43
2019-03-12T18:33:27.547Z,18.00
2019-03-12T18:36:51.767Z,15.73
2019-03-12T18:40:18.502Z,21.67
2019-03-12T18:43:42.413Z,30.67
2019-03-12T18:47:06.207Z,32.27
2019-03-12T18:50:30.031Z,32.60
2019-03-12T18:53:53.857Z,30.93
2019-03-12T18:57:17.683Z,39.97
2019-03-12T19:00:48.748Z,32.70
2019-03-12T19:04:12.927Z,39.93
2019-03-12T19:07:36.861Z,31.43
2019-03-12T19:11:01.694Z,17.13
2019-03-12T19:14:25.714Z,24.50
2019-03-12T19:17:49.658Z,22.30
2019-03-12T19:21:13.720Z,22.87
2019-03-12T19:24:37.941Z,30.40
2019-03-12T19:28:02.199Z,43.23
2019-03-12T19:31:30.791Z,55.67
2019-03-12T19:34:55.336Z,55.27
2019-03-12T19:38:19.677Z,59.03
2019-03-12T19:41:44.502Z,50.47
2019-03-12T19:45:11.618Z,72.47
2019-03-12T19:48:36.048Z,93.00
2019-03-12T19:52:00.238Z,149.23
2019-03-12T19:55:36.246Z,132.97
2019-03-12T19:59:00.098Z,97.63
2019-03-12T20:02:24.446Z,76.40
2019-03-12T20:05:48.488Z,83.43
2019-03-12T20:09:15.091Z,78.27
2019-03-12T20:12:48.249Z,107.83
2019-03-12T20:16:33.222Z,96.40
2019-03-12T20:20:33.860Z,92.67
2019-03-12T20:24:23.141Z,94.57
2019-03-12T20:28:24.904Z,111.83
2019-03-12T20:32:07.167Z,141.73
2019-03-12T20:36:08.533Z,120.93
2019-03-12T20:39:51.699Z,104.17
2019-03-12T20:43:47.538Z,105.50
2019-03-12T20:47:34.283Z,103.73
2019-03-12T20:51:34.606Z,82.67
2019-03-12T20:55:16.383Z,100.67
2019-03-12T20:58:55.018Z,97.60
2019-03-12T21:02:53.001Z,95.57
2019-03-12T21:06:28.341Z,97.97
2019-03-12T21:10:07.087Z,102.53
2019-03-12T21:13:59.428Z,104.40
2019-03-12T21:17:58.736Z,99.97
2019-03-12T21:21:42.050Z,107.23
2019-03-12T21:25:17.184Z,102.93
2019-03-12T21:28:46.639Z,103.10
2019-03-12T21:32:11.235Z,109.20
2019-03-12T21:35:35.160Z,115.17
2019-03-12T21:38:59.147Z,105.07
2019-03-12T21:42:25.354Z,96.10
2019-03-12T21:45:48.878Z,107.23
2019-03-12T21:49:12.742Z,82.40
2019-03-12T21:52:36.706Z,86.47
2019-03-12T21:56:00.642Z,89.57
2019-03-12T21:59:24.618Z,88.33
2019-03-12T22:02:48.613Z,74.83
2019-03-12T22:06:13.369Z,79.50
2019-03-12T22:09:37.140Z,74.50
2019-03-12T22:13:01.060Z,86.57
2019-03-12T22:16:24.967Z,93.13
2019-03-12T22:19:48.822Z,86.30
2019-03-12T22:23:14.116Z,91.20
2019-03-12T22:26:38.018Z,76.63
2019-03-12T22:30:01.916Z,97.37
2019-03-12T22:33:25.752Z,91.97
2019-03-12T22:36:49.661Z,75.23
2019-03-12T22:40:14.830Z,79.73
2019-03-12T22:43:38.710Z,74.83
2019-03-12T22:47:02.823Z,73.27
2019-03-12T22:50:26.722Z,74.37
2019-03-12T22:53:50.770Z,68.03
2019-03-12T22:57:14.450Z,69.47
2019-03-12T23:00:39.319Z,70.37
2019-03-12T23:04:52.215Z,70.30
2019-03-12T23:08:16.305Z,72.57
2019-03-12T23:11:40.363Z,77.17
2019-03-12T23:15:12.766Z,76.83
2019-03-12T23:18:36.622Z,69.47
2019-03-12T23:22:00.953Z,71.63
2019-03-12T23:25:25.053Z,68.73
2019-03-12T23:28:48.957Z,56.03
2019-03-12T23:32:13.822Z,62.67
2019-03-12T23:36:32.078Z,61.67
2019-03-12T23:39:56.423Z,58.17
2019-03-12T23:43:20.209Z,60.23
2019-03-12T23:46:44.109Z,59.03
2019-03-12T23:50:17.866Z,65.83
2019-03-12T23:53:41.823Z,65.17
2019-03-12T23:57:05.663Z,62.77
